Cushing, Iowa
Current Conditions -  °F | °C
As of 10:35 PM on Wednesday 22 Oct 2014 (Local Time) from KCKP Reporting Station
Moderate Rain Moderate Rain  
Wind Chill: 58°   Ceiling: 2800
Heat Index: 58°   Visibility: 7mi
Dew Point: 58°   Wind: 0mph
Humidity: 100%   Direction: NA
Pressure: 30.04"   Gusts: NA
Location:  42.46°N, 95.67°W
Report Text: KCKP 230335Z AUTO 00000KT 7SM RA BKN028 BKN032 OVC060 15/15 A3004 RMK AO2 P0002 T01470147
Loading
Personal Weather Stations






























Interactive Weather Map
Tropical Storm Tracking
New forecast layout! Learn more

10-Day Weather Forecast

Advertisements
Track Severe Weather on mobile